Time;durP1;ratioP1;P1;durP2;ratioP2;P2;SDS_P1;SDS_P2;PMS_P1;PMS_P2;Temp;Humidity;BMP_temperature;BMP_pressure;BME280_temperature;BME280_humidity;BME280_pressure;Samples;Min_cycle;Max_cycle;Signal;HPM_P1;HPM_P2
2022/06/05 00:02:41;;;;;;;8.05;4.80;;;16.30;89.70;;;;;;4992164;28;20121;-66
2022/06/05 00:05:27;;;;;;;15.52;5.13;;;16.20;89.70;;;;;;4990791;28;20042;-66
2022/06/05 00:08:09;;;;;;;12.80;4.63;;;16.20;89.70;;;;;;4992421;28;20039;-66
2022/06/05 00:10:42;;;;;;;14.57;5.35;;;16.20;89.80;;;;;;4990989;28;20030;-66
2022/06/05 00:13:19;;;;;;;10.15;4.28;;;16.10;90.10;;;;;;4991751;28;20545;-66
2022/06/05 00:15:45;;;;;;;7.45;4.05;;;16.10;89.80;;;;;;4992372;28;20037;-66
2022/06/05 00:18:12;;;;;;;6.43;4.18;;;16.00;89.80;;;;;;4990871;28;20038;-66
2022/06/05 00:20:41;;;;;;;8.80;3.40;;;16.00;90.00;;;;;;4992419;28;20058;-66
2022/06/05 00:23:08;;;;;;;9.55;4.15;;;15.90;90.00;;;;;;4991587;28;20026;-66
2022/06/05 00:25:53;;;;;;;9.48;4.03;;;15.90;90.10;;;;;;4991502;28;20038;-66
2022/06/05 00:28:43;;;;;;;10.05;4.05;;;15.80;90.20;;;;;;4992053;28;20387;-66
2022/06/05 00:31:46;;;;;;;10.38;3.90;;;15.90;90.30;;;;;;4982041;28;20034;-66
2022/06/05 00:34:11;;;;;;;9.02;3.80;;;15.80;90.30;;;;;;4995328;28;20066;-66
2022/06/05 00:36:40;;;;;;;10.43;4.20;;;15.80;90.30;;;;;;4996088;28;20116;-66
2022/06/05 00:39:19;;;;;;;6.72;3.88;;;15.80;90.40;;;;;;4995008;28;20142;-66
2022/06/05 00:41:58;;;;;;;10.90;5.03;;;15.80;90.50;;;;;;4984752;28;20041;-66
2022/06/05 00:44:55;;;;;;;9.00;4.53;;;15.80;90.60;;;;;;4995054;28;20534;-66
2022/06/05 00:47:26;;;;;;;13.45;4.78;;;15.80;90.60;;;;;;4986351;28;20522;-66
2022/06/05 00:50:15;;;;;;;10.32;4.40;;;15.80;90.70;;;;;;4995517;28;20539;-66
2022/06/05 00:52:45;;;;;;;12.13;4.38;;;15.70;90.70;;;;;;4994250;28;20045;-66
2022/06/05 00:55:12;;;;;;;10.18;4.57;;;15.70;90.70;;;;;;4995587;28;20035;-66
2022/06/05 00:57:39;;;;;;;6.82;4.35;;;15.70;90.80;;;;;;4995623;28;20038;-66
2022/06/05 01:00:19;;;;;;;12.00;4.40;;;15.70;90.80;;;;;;4993592;28;20367;-67
2022/06/05 01:02:47;;;;;;;5.95;3.70;;;15.70;90.90;;;;;;4995412;28;20031;-68
2022/06/05 01:05:15;;;;;;;13.18;4.00;;;15.70;90.90;;;;;;4994603;28;20053;-68
2022/06/05 01:07:41;;;;;;;10.80;4.30;;;15.70;90.90;;;;;;4994535;28;20058;-68
2022/06/05 01:10:08;;;;;;;10.07;4.10;;;15.70;91.00;;;;;;4994786;28;20474;-68
2022/06/05 01:12:48;;;;;;;9.80;3.90;;;15.70;91.00;;;;;;4995245;28;20042;-68
2022/06/05 01:15:25;;;;;;;14.13;4.60;;;15.70;91.10;;;;;;4994168;28;20026;-68
2022/06/05 01:18:21;;;;;;;12.85;4.35;;;15.60;91.10;;;;;;4994621;28;20034;-68
2022/06/05 01:21:01;;;;;;;7.90;4.28;;;15.60;91.10;;;;;;4994375;28;20046;-68
2022/06/05 01:23:43;;;;;;;9.15;4.82;;;15.60;91.10;;;;;;4994358;28;20120;-68
2022/06/05 01:26:30;;;;;;;7.78;4.30;;;15.60;91.20;;;;;;4994441;28;20081;-68
2022/06/05 01:29:07;;;;;;;10.45;5.03;;;15.50;91.30;;;;;;4994018;28;20042;-68
2022/06/05 01:31:37;;;;;;;13.55;4.68;;;15.50;91.30;;;;;;4994597;28;20033;-68
2022/06/05 01:34:24;;;;;;;12.73;4.47;;;15.50;91.30;;;;;;4994365;28;20026;-68
2022/06/05 01:36:59;;;;;;;9.60;4.25;;;15.50;91.20;;;;;;4994501;28;20113;-68
2022/06/05 01:39:35;;;;;;;9.13;4.45;;;15.50;91.30;;;;;;4994284;28;20109;-68
2022/06/05 01:42:07;;;;;;;11.55;4.38;;;15.40;91.40;;;;;;4992697;28;20405;-68
2022/06/05 01:44:45;;;;;;;16.15;5.25;;;15.40;91.40;;;;;;4994328;28;20052;-68
2022/06/05 01:47:24;;;;;;;10.35;4.05;;;15.40;91.50;;;;;;4994145;28;20037;-68
2022/06/05 01:50:08;;;;;;;12.77;4.72;;;15.30;91.50;;;;;;4983307;28;20034;-67
2022/06/05 01:52:52;;;;;;;13.30;4.70;;;15.30;91.60;;;;;;4993718;28;20367;-68
2022/06/05 01:55:36;;;;;;;9.82;4.72;;;15.30;91.60;;;;;;4993539;28;20058;-68
2022/06/05 01:58:06;;;;;;;10.77;4.45;;;15.40;91.80;;;;;;4994543;28;20042;-68
2022/06/05 02:00:32;;;;;;;12.55;5.18;;;15.30;91.60;;;;;;4991985;28;20077;-68
2022/06/05 02:03:17;;;;;;;12.13;4.65;;;15.30;91.70;;;;;;4993092;28;20038;-68
2022/06/05 02:06:00;;;;;;;12.68;5.72;;;15.30;91.80;;;;;;4993496;28;20100;-68
2022/06/05 02:08:55;;;;;;;;;;;15.30;91.90;;;;;;4988862;28;20113;-68
2022/06/05 02:11:21;;;;;;;;;;;15.30;91.60;;;;;;4978807;28;19910;-68
2022/06/05 02:13:49;;;;;;;11.85;4.65;;;15.30;91.30;;;;;;4993890;28;20392;-68
2022/06/05 02:16:16;;;;;;;12.32;4.68;;;15.30;91.50;;;;;;4993976;28;20073;-67
2022/06/05 02:18:42;;;;;;;10.25;5.20;;;15.20;91.60;;;;;;4989557;28;20490;-68
2022/06/05 02:21:08;;;;;;;9.75;5.32;;;15.20;91.80;;;;;;4993767;28;20125;-68
2022/06/05 02:23:36;;;;;;;9.63;4.88;;;15.20;91.90;;;;;;4992902;28;20486;-68
2022/06/05 02:26:05;;;;;;;9.40;5.20;;;15.20;92.10;;;;;;4993094;28;20479;-68
2022/06/05 02:28:30;;;;;;;15.00;6.28;;;15.20;92.20;;;;;;4993241;28;20030;-68
2022/06/05 02:31:33;;;;;;;11.73;6.20;;;15.20;92.30;;;;;;4993167;28;20097;-68
2022/06/05 02:34:26;;;;;;;12.02;6.53;;;15.20;92.40;;;;;;4986966;28;20539;-68
2022/06/05 02:37:12;;;;;;;13.63;6.45;;;15.20;92.50;;;;;;4993430;28;20401;-68
2022/06/05 02:40:18;;;;;;;12.82;6.88;;;15.30;92.50;;;;;;4991150;28;20065;-67
2022/06/05 02:43:07;;;;;;;13.75;8.13;;;15.20;92.50;;;;;;4992522;28;20080;-68
2022/06/05 02:45:44;;;;;;;16.13;7.20;;;15.20;92.60;;;;;;4993069;28;20046;-68
2022/06/05 02:48:23;;;;;;;17.17;6.78;;;15.20;92.60;;;;;;4982365;28;20030;-68
2022/06/05 02:50:55;;;;;;;13.82;7.03;;;15.20;92.70;;;;;;4992967;28;20030;-68
2022/06/05 02:53:21;;;;;;;13.15;7.28;;;15.30;92.80;;;;;;4990482;28;20057;-68
2022/06/05 02:55:46;;;;;;;13.05;6.78;;;15.30;92.90;;;;;;4993510;28;20465;-68
2022/06/05 02:58:13;;;;;;;13.05;7.10;;;15.30;92.90;;;;;;4992216;28;20433;-68
2022/06/05 03:00:40;;;;;;;20.13;7.63;;;15.30;93.00;;;;;;4992532;28;20041;-68
2022/06/05 03:05:51;;;;;;;13.52;6.68;;;15.30;93.10;;;;;;4993035;28;20402;-68
2022/06/05 03:08:21;;;;;;;17.13;6.95;;;15.30;93.10;;;;;;4991767;28;20034;-68
2022/06/05 03:10:47;;;;;;;15.82;6.65;;;15.30;93.10;;;;;;4991495;28;20038;-67
2022/06/05 03:13:13;;;;;;;11.52;6.72;;;15.30;93.10;;;;;;4991710;28;20157;-68
2022/06/05 03:15:41;;;;;;;13.75;6.60;;;15.30;93.10;;;;;;4993056;28;20030;-68
2022/06/05 03:18:07;;;;;;;14.25;8.23;;;15.30;93.20;;;;;;4992609;28;20430;-68
2022/06/05 03:20:33;;;;;;;12.88;7.05;;;15.30;93.30;;;;;;4992360;28;20022;-68
2022/06/05 03:23:00;;;;;;;11.90;6.75;;;15.30;93.20;;;;;;4992417;28;20455;-68
2022/06/05 03:25:26;;;;;;;16.67;6.95;;;15.30;93.20;;;;;;4992940;28;20070;-68
2022/06/05 03:27:53;;;;;;;17.40;6.95;;;15.30;93.30;;;;;;4991605;28;20034;-68
2022/06/05 03:30:19;;;;;;;12.98;6.78;;;15.20;93.30;;;;;;4991796;28;20077;-66
2022/06/05 03:32:46;;;;;;;17.65;6.95;;;15.20;93.20;;;;;;4992878;28;20026;-68
2022/06/05 03:35:13;;;;;;;11.30;6.30;;;15.20;93.20;;;;;;4991507;28;20042;-68
2022/06/05 03:37:39;;;;;;;11.65;7.30;;;15.20;93.20;;;;;;4992890;28;20030;-68
2022/06/05 03:40:13;;;;;;;14.35;7.38;;;15.20;93.20;;;;;;4991901;28;20041;-68
2022/06/05 03:42:39;;;;;;;15.15;6.97;;;15.20;93.30;;;;;;4991782;28;20042;-68
2022/06/05 03:45:15;;;;;;;17.30;6.50;;;15.20;93.30;;;;;;4991318;28;20141;-68
2022/06/05 03:47:41;;;;;;;16.00;7.03;;;15.20;93.40;;;;;;4992661;28;20384;-68
2022/06/05 03:50:08;;;;;;;11.75;7.05;;;15.20;93.40;;;;;;4991881;28;20053;-68
2022/06/05 03:52:34;;;;;;;20.38;8.00;;;15.20;93.50;;;;;;4992727;28;20442;-68
2022/06/05 03:55:00;;;;;;;15.43;7.43;;;15.20;93.60;;;;;;4991854;28;20072;-68
2022/06/05 03:57:25;;;;;;;13.60;7.15;;;15.20;93.60;;;;;;4992083;28;20113;-68
2022/06/05 03:59:51;;;;;;;11.35;6.88;;;15.20;93.50;;;;;;4991222;28;20442;-68
2022/06/05 04:02:17;;;;;;;11.63;6.93;;;15.20;93.50;;;;;;4991286;28;20042;-68
2022/06/05 04:04:43;;;;;;;17.23;7.53;;;15.20;93.60;;;;;;4992272;28;20044;-68
2022/06/05 04:07:08;;;;;;;19.63;8.27;;;15.20;93.70;;;;;;4996424;28;20041;-68
2022/06/05 04:09:34;;;;;;;12.43;8.00;;;15.20;93.80;;;;;;4995694;28;20113;-68
2022/06/05 04:12:00;;;;;;;16.38;7.50;;;15.20;93.80;;;;;;4995235;28;20038;-68
2022/06/05 04:14:26;;;;;;;22.80;9.00;;;15.20;93.80;;;;;;4996246;28;20069;-68
2022/06/05 04:16:51;;;;;;;12.98;7.50;;;15.20;93.80;;;;;;4995139;28;20026;-68
2022/06/05 04:19:17;;;;;;;19.65;7.93;;;15.20;93.80;;;;;;4996441;28;20054;-68
2022/06/05 04:21:46;;;;;;;13.82;7.05;;;15.30;93.80;;;;;;4995448;28;20078;-68
2022/06/05 04:24:12;;;;;;;14.90;7.82;;;15.30;93.80;;;;;;4995429;28;20497;-68
2022/06/05 04:26:40;;;;;;;19.55;8.70;;;15.30;93.80;;;;;;4995000;28;20038;-68
2022/06/05 04:29:05;;;;;;;20.90;8.35;;;15.30;93.80;;;;;;4995390;28;20038;-68
2022/06/05 04:31:37;;;;;;;18.10;7.55;;;15.30;93.90;;;;;;4993796;28;20367;-68
2022/06/05 04:34:06;;;;;;;14.15;7.63;;;15.30;93.90;;;;;;4995951;28;20038;-68
2022/06/05 04:36:32;;;;;;;21.20;7.68;;;15.30;93.90;;;;;;4995187;28;20026;-68
2022/06/05 04:38:58;;;;;;;12.32;7.57;;;15.30;93.80;;;;;;4995787;28;20038;-67
2022/06/05 04:41:24;;;;;;;16.67;7.95;;;15.30;94.00;;;;;;4995256;28;20032;-68
2022/06/05 04:43:51;;;;;;;16.58;7.85;;;15.30;94.00;;;;;;4995756;28;20030;-68
2022/06/05 04:46:19;;;;;;;18.95;7.75;;;15.30;94.00;;;;;;4994457;28;20085;-68
2022/06/05 04:48:54;;;;;;;14.60;7.75;;;15.30;94.00;;;;;;4995642;28;20033;-68
2022/06/05 04:51:20;;;;;;;16.40;8.10;;;15.40;94.00;;;;;;4994371;28;20429;-68
2022/06/05 04:53:48;;;;;;;16.20;9.00;;;15.40;94.00;;;;;;4994746;28;20040;-68
2022/06/05 04:56:17;;;;;;;20.92;8.20;;;15.40;94.00;;;;;;4995474;28;20042;-68
2022/06/05 04:58:43;;;;;;;12.57;7.63;;;15.40;94.00;;;;;;4994220;28;20434;-68
2022/06/05 05:01:19;;;;;;;16.67;8.23;;;15.40;94.00;;;;;;4984316;28;20034;-68
2022/06/05 05:03:46;;;;;;;20.15;8.80;;;15.40;94.20;;;;;;4985723;28;20026;-68
2022/06/05 05:06:11;;;;;;;22.13;9.10;;;15.40;94.30;;;;;;4993924;28;20045;-68
2022/06/05 05:08:37;;;;;;;21.67;9.32;;;15.50;94.20;;;;;;4995430;28;20027;-68
2022/06/05 05:11:04;;;;;;;18.67;8.65;;;15.50;94.20;;;;;;4995144;28;20034;-67
2022/06/05 05:13:29;;;;;;;16.90;8.35;;;15.50;94.30;;;;;;4993940;28;20101;-68
2022/06/05 05:15:55;;;;;;;21.20;8.77;;;15.50;94.30;;;;;;4995054;28;20034;-68
2022/06/05 05:18:22;;;;;;;16.25;8.20;;;15.60;94.40;;;;;;4994161;28;20034;-68
2022/06/05 05:20:48;;;;;;;17.15;8.30;;;15.60;94.40;;;;;;4994880;28;20406;-68
2022/06/05 05:23:13;;;;;;;12.45;7.53;;;15.60;94.30;;;;;;4994555;28;20027;-68
2022/06/05 05:25:39;;;;;;;26.48;8.40;;;15.60;94.30;;;;;;4994638;28;20046;-68
2022/06/05 05:28:06;;;;;;;15.45;8.13;;;15.60;94.40;;;;;;4993636;28;20022;-68
2022/06/05 05:30:35;;;;;;;11.50;8.45;;;15.70;94.60;;;;;;4995355;28;20026;-68
2022/06/05 05:33:01;;;;;;;13.90;8.65;;;15.70;94.70;;;;;;4994182;28;20038;-68
2022/06/05 05:35:27;;;;;;;15.75;8.18;;;15.70;94.40;;;;;;4994447;28;20030;-66
2022/06/05 05:37:52;;;;;;;16.77;8.32;;;15.70;94.40;;;;;;4994501;28;20066;-66
2022/06/05 05:43:03;;;;;;;17.38;8.05;;;15.80;94.40;;;;;;4992972;28;20042;-68
2022/06/05 05:45:29;;;;;;;19.25;8.43;;;15.80;94.40;;;;;;4993873;28;20749;-68
2022/06/05 05:47:58;;;;;;;16.25;8.40;;;15.80;94.60;;;;;;4993382;28;20045;-68
2022/06/05 05:50:24;;;;;;;16.38;9.98;;;15.90;94.60;;;;;;4994461;28;20038;-68
2022/06/05 05:52:49;;;;;;;13.65;8.48;;;15.90;94.60;;;;;;4994020;28;20034;-68
2022/06/05 05:55:18;;;;;;;18.52;8.95;;;15.90;94.70;;;;;;4993544;28;20033;-68
2022/06/05 05:57:46;;;;;;;16.52;8.48;;;16.00;94.80;;;;;;4994453;28;20098;-68
2022/06/05 06:00:13;;;;;;;16.65;9.35;;;16.00;94.60;;;;;;4993572;28;20030;-68
2022/06/05 06:02:43;;;;;;;15.65;8.95;;;16.10;94.60;;;;;;4987680;28;20421;-68
2022/06/05 06:05:13;;;;;;;18.58;9.07;;;16.10;94.50;;;;;;4993490;28;20038;-68
2022/06/05 06:07:39;;;;;;;14.13;8.00;;;16.20;94.60;;;;;;4994106;28;20026;-68
2022/06/05 06:10:07;;;;;;;16.45;7.88;;;16.30;94.40;;;;;;4992928;28;20034;-68
2022/06/05 06:12:33;;;;;;;18.58;8.30;;;16.30;94.30;;;;;;4994136;28;20055;-68
2022/06/05 06:14:59;;;;;;;19.27;8.52;;;16.30;94.50;;;;;;4993368;28;20030;-68
2022/06/05 06:17:28;;;;;;;14.85;8.82;;;16.40;94.20;;;;;;4993732;28;20084;-68
2022/06/05 06:19:53;;;;;;;11.70;7.28;;;16.40;94.10;;;;;;4993128;28;20030;-66
2022/06/05 06:22:20;;;;;;;15.82;7.70;;;16.50;94.10;;;;;;4993554;28;20096;-66
2022/06/05 06:24:46;;;;;;;16.55;7.70;;;16.60;93.90;;;;;;4992857;28;20513;-66
2022/06/05 06:27:12;;;;;;;12.90;8.25;;;16.60;93.90;;;;;;4991833;28;20124;-67
2022/06/05 06:29:37;;;;;;;14.57;8.38;;;16.70;93.90;;;;;;4992264;28;20058;-66
2022/06/05 06:32:04;;;;;;;14.73;7.85;;;16.70;94.00;;;;;;4992676;28;20026;-67
2022/06/05 06:34:30;;;;;;;12.90;7.88;;;16.80;93.90;;;;;;4992423;28;20030;-67
2022/06/05 06:36:56;;;;;;;14.60;8.60;;;16.80;94.00;;;;;;4992342;28;20521;-65
2022/06/05 06:39:26;;;;;;;11.20;7.43;;;16.90;94.00;;;;;;4992745;28;20042;-65
2022/06/05 06:41:51;;;;;;;14.38;7.32;;;17.00;93.90;;;;;;4992597;28;20033;-65
2022/06/05 06:44:18;;;;;;;16.52;7.53;;;17.00;93.90;;;;;;4991082;28;20022;-65
2022/06/05 06:46:44;;;;;;;12.43;8.40;;;17.10;93.80;;;;;;4992626;28;20038;-65
2022/06/05 06:49:10;;;;;;;14.70;8.32;;;17.10;93.70;;;;;;4992339;28;20391;-67
2022/06/05 06:51:36;;;;;;;8.18;5.85;;;17.20;93.70;;;;;;4991953;28;20045;-65
2022/06/05 06:54:02;;;;;;;9.35;5.25;;;17.20;93.10;;;;;;4992236;28;20022;-66
2022/06/05 06:56:31;;;;;;;13.20;5.10;;;17.20;92.70;;;;;;4992336;28;20026;-66
2022/06/05 06:58:59;;;;;;;12.38;6.35;;;17.30;92.50;;;;;;4991690;28;20037;-66
2022/06/05 07:01:25;;;;;;;11.70;6.50;;;17.30;92.30;;;;;;4992145;28;20022;-66
2022/06/05 07:03:51;;;;;;;10.95;5.82;;;17.30;92.10;;;;;;4992025;28;20033;-66
2022/06/05 07:06:20;;;;;;;9.75;6.70;;;17.30;92.10;;;;;;4991184;28;20193;-66
2022/06/05 07:08:46;;;;;;;14.32;6.70;;;17.40;91.80;;;;;;4991858;28;20370;-66
2022/06/05 07:11:14;;;;;;;9.85;5.75;;;17.50;92.10;;;;;;4991520;28;20042;-66
2022/06/05 07:13:40;;;;;;;10.65;6.55;;;17.50;91.90;;;;;;4991114;28;20445;-65
2022/06/05 07:16:08;;;;;;;9.73;6.65;;;17.50;91.80;;;;;;4993457;28;20034;-66
2022/06/05 07:18:33;;;;;;;11.68;6.55;;;17.50;91.80;;;;;;4991880;28;20030;-66
2022/06/05 07:21:13;;;;;;;13.70;5.03;;;17.50;91.60;;;;;;4989416;28;20033;-67
2022/06/05 07:23:39;;;;;;;11.38;6.82;;;17.60;91.60;;;;;;4989394;28;20053;-66
2022/06/05 07:26:08;;;;;;;10.57;4.72;;;17.60;91.60;;;;;;4988979;28;20121;-66
2022/06/05 07:28:33;;;;;;;11.65;6.93;;;17.70;91.50;;;;;;4990120;28;20788;-66
2022/06/05 07:31:02;;;;;;;8.77;5.70;;;17.70;91.70;;;;;;4991087;28;20030;-67
2022/06/05 07:33:30;;;;;;;8.13;4.80;;;17.80;91.70;;;;;;4989789;28;20038;-64
2022/06/05 07:36:03;;;;;;;9.25;5.60;;;17.80;91.60;;;;;;4990374;28;20501;-65
2022/06/05 07:38:29;;;;;;;9.57;5.32;;;17.90;91.60;;;;;;4990350;28;20106;-66
2022/06/05 07:40:55;;;;;;;8.13;4.70;;;17.90;91.40;;;;;;4989451;28;20371;-65
2022/06/05 07:43:21;;;;;;;9.73;5.65;;;18.00;91.30;;;;;;4989140;28;20145;-66
2022/06/05 07:45:48;;;;;;;10.95;6.13;;;18.10;91.30;;;;;;4987565;28;20153;-66
2022/06/05 07:48:14;;;;;;;9.90;5.85;;;18.10;91.20;;;;;;4988528;28;20034;-66
2022/06/05 07:54:26;;;;;;;7.00;4.35;;;18.20;91.20;;;;;;4990063;28;20037;-66
2022/06/05 07:56:10;;;;;;;7.78;4.75;;;18.30;90.90;;;;;;4990209;28;20161;-67
2022/06/05 07:58:35;;;;;;;8.23;5.60;;;18.40;90.90;;;;;;4990443;28;20202;-67
2022/06/05 08:01:01;;;;;;;10.38;5.70;;;18.40;91.00;;;;;;4988466;28;20037;-67
2022/06/05 08:03:27;;;;;;;9.43;5.68;;;18.50;90.90;;;;;;4989911;28;20475;-67
2022/06/05 08:05:52;;;;;;;5.38;2.78;;;18.50;90.90;;;;;;4990564;28;20069;-65
2022/06/05 08:08:18;;;;;;;8.88;5.45;;;18.50;90.70;;;;;;4989858;28;20022;-66
2022/06/05 08:10:44;;;;;;;10.55;5.13;;;18.60;90.70;;;;;;4990451;28;20494;-67
2022/06/05 08:13:10;;;;;;;11.40;4.80;;;18.60;90.70;;;;;;4989976;28;20038;-66
2022/06/05 08:15:35;;;;;;;8.35;5.03;;;18.70;90.70;;;;;;4989778;28;20139;-66
2022/06/05 08:18:01;;;;;;;5.93;3.60;;;18.70;90.50;;;;;;4988027;28;20022;-67
2022/06/05 08:20:27;;;;;;;5.53;3.50;;;18.80;90.60;;;;;;4990427;28;20056;-68
2022/06/05 08:22:53;;;;;;;5.38;3.17;;;18.90;90.50;;;;;;4989598;28;20113;-67
2022/06/05 08:25:20;;;;;;;9.65;4.40;;;18.80;90.40;;;;;;4987571;28;20594;-67
2022/06/05 08:27:46;;;;;;;7.38;5.50;;;18.90;90.30;;;;;;4987154;28;20049;-67
2022/06/05 08:30:12;;;;;;;10.30;5.03;;;19.00;90.40;;;;;;4984433;28;20470;-66
2022/06/05 08:32:38;;;;;;;8.75;4.82;;;19.00;90.30;;;;;;4982601;28;20813;-67
2022/06/05 08:35:04;;;;;;;8.57;4.85;;;19.10;90.30;;;;;;4985487;28;20030;-67
2022/06/05 08:43:08;;;;;;;5.30;3.38;;;19.30;90.30;;;;;;4984116;28;20053;-66
2022/06/05 08:45:47;;;;;;;6.90;3.55;;;19.30;90.40;;;;;;4985029;28;20160;-66
2022/06/05 08:48:37;;;;;;;7.20;4.82;;;19.40;90.20;;;;;;4985313;28;20030;-66
2022/06/05 08:51:18;;;;;;;7.60;4.55;;;19.40;90.00;;;;;;4987520;28;20022;-66
2022/06/05 08:54:01;;;;;;;10.60;5.25;;;19.50;90.00;;;;;;4992622;28;20121;-67
2022/06/05 08:56:44;;;;;;;6.90;4.35;;;19.60;90.00;;;;;;4989682;28;20030;-67
2022/06/05 08:59:18;;;;;;;7.30;4.40;;;19.60;90.00;;;;;;4989921;28;20439;-66
2022/06/05 09:02:00;;;;;;;11.48;4.72;;;19.70;90.00;;;;;;4989770;28;20057;-67
2022/06/05 09:04:45;;;;;;;7.10;4.43;;;19.80;90.00;;;;;;4990918;28;20026;-67
2022/06/05 09:07:18;;;;;;;6.50;4.65;;;19.80;90.00;;;;;;4990612;28;20026;-68
2022/06/05 09:10:04;;;;;;;7.90;4.50;;;19.90;90.00;;;;;;4989915;28;20023;-67
2022/06/05 09:12:38;;;;;;;9.02;4.22;;;20.00;90.10;;;;;;4991705;28;20068;-66
2022/06/05 09:15:24;;;;;;;;;;;20.00;90.00;;;;;;4992374;28;20378;-66
2022/06/05 09:17:55;;;;;;;8.95;5.18;;;20.10;90.00;;;;;;4991426;28;19910;-66
2022/06/05 09:20:47;;;;;;;8.00;4.40;;;20.10;89.90;;;;;;4991351;28;20548;-66
2022/06/05 09:23:22;;;;;;;6.70;3.90;;;20.20;89.90;;;;;;4990625;28;20536;-66
2022/06/05 09:26:06;;;;;;;9.10;4.47;;;20.20;90.00;;;;;;4991996;28;20085;-65
2022/06/05 09:28:35;;;;;;;8.75;4.47;;;20.20;90.00;;;;;;4994129;28;20076;-66
2022/06/05 09:31:32;;;;;;;6.22;4.03;;;20.30;90.00;;;;;;4989349;28;20049;-63
2022/06/05 09:34:01;;;;;;;6.22;4.28;;;20.40;90.10;;;;;;4992351;28;20038;-66
2022/06/05 09:36:30;;;;;;;8.20;4.13;;;20.40;90.00;;;;;;4992051;28;20030;-67
2022/06/05 09:39:21;;;;;;;8.05;4.00;;;20.50;90.00;;;;;;4989897;28;20478;-66
2022/06/05 09:41:55;;;;;;;3.58;1.85;;;20.50;89.90;;;;;;4991660;28;20124;-66
2022/06/05 09:44:27;;;;;;;5.25;2.90;;;20.50;90.10;;;;;;4987537;28;20410;-67
2022/06/05 09:47:01;;;;;;;7.15;3.63;;;20.60;90.00;;;;;;4992294;28;20046;-66
2022/06/05 09:49:32;;;;;;;4.90;3.25;;;20.70;90.00;;;;;;4989018;28;20050;-66
2022/06/05 09:52:16;;;;;;;4.80;3.40;;;20.70;90.00;;;;;;4992306;28;20035;-66
2022/06/05 09:54:50;;;;;;;6.80;3.72;;;20.80;90.00;;;;;;4990330;28;20045;-67
2022/06/05 10:00:37;;;;;;;3.50;2.42;;;20.90;90.00;;;;;;4991952;28;20030;-67
2022/06/05 10:03:12;;;;;;;3.33;2.28;;;21.00;90.00;;;;;;4990216;28;20466;-67
2022/06/05 10:05:44;;;;;;;2.05;1.85;;;21.00;90.00;;;;;;4992835;28;20113;-67
2022/06/05 10:08:20;;;;;;;5.57;3.77;;;21.10;90.00;;;;;;4991603;28;20043;-67
2022/06/05 10:10:48;;;;;;;4.00;2.47;;;21.20;89.80;;;;;;4992834;28;20281;-67
2022/06/05 10:13:40;;;;;;;7.22;3.70;;;21.20;90.00;;;;;;4990805;28;20100;-67
2022/06/05 10:16:12;;;;;;;8.15;4.10;;;21.30;89.30;;;;;;4989763;28;20129;-66
2022/06/05 10:19:02;;;;;;;4.18;2.72;;;21.40;89.30;;;;;;4989483;28;20027;-67
2022/06/05 10:21:36;;;;;;;3.97;3.13;;;21.40;89.90;;;;;;4990814;28;20482;-67
2022/06/05 10:24:26;;;;;;;5.18;3.30;;;21.50;89.60;;;;;;4993221;28;20033;-67
2022/06/05 10:26:56;;;;;;;6.13;3.50;;;21.50;89.40;;;;;;4991748;28;20041;-67
2022/06/05 10:29:30;;;;;;;6.82;3.92;;;21.50;89.10;;;;;;4989417;28;20045;-66
2022/06/05 10:32:06;;;;;;;6.80;3.70;;;21.60;89.10;;;;;;4989851;28;20084;-64
2022/06/05 10:34:41;;;;;;;6.78;3.35;;;21.70;89.10;;;;;;4991124;28;20023;-65
2022/06/05 10:37:48;;;;;;;8.00;3.78;;;21.70;89.20;;;;;;4990956;28;20382;-64
2022/06/05 10:40:25;;;;;;;5.50;3.80;;;21.90;89.10;;;;;;4991194;28;20040;-64
2022/06/05 10:43:03;;;;;;;4.80;3.28;;;21.90;89.00;;;;;;4991367;28;20026;-65
2022/06/05 10:45:55;;;;;;;11.73;3.83;;;22.00;89.10;;;;;;4991008;28;20050;-64
2022/06/05 10:48:24;;;;;;;6.68;2.47;;;22.00;89.00;;;;;;4988271;28;20466;-64
2022/06/05 10:51:03;;;;;;;14.13;4.00;;;22.10;89.20;;;;;;4985104;28;20034;-64
2022/06/05 10:53:42;;;;;;;5.60;3.85;;;22.10;88.70;;;;;;4986775;28;20177;-64
2022/06/05 10:56:33;;;;;;;5.05;3.42;;;22.20;88.90;;;;;;4989348;28;20038;-64
2022/06/05 10:59:11;;;;;;;4.80;3.22;;;22.30;89.00;;;;;;4989771;28;20038;-64
2022/06/05 11:01:48;;;;;;;5.47;3.63;;;22.30;88.70;;;;;;4987830;28;20030;-64
2022/06/05 11:04:29;;;;;;;11.30;3.65;;;22.30;88.50;;;;;;4989904;28;20113;-65
2022/06/05 11:07:13;;;;;;;5.05;2.85;;;22.40;88.50;;;;;;4987717;28;20278;-65
2022/06/05 11:09:57;;;;;;;3.28;2.50;;;22.50;88.70;;;;;;4986604;28;20470;-64
2022/06/05 11:15:29;;;;;;;6.22;3.40;;;22.50;89.30;;;;;;4988578;28;19922;-64
2022/06/05 11:18:19;;;;;;;16.23;4.10;;;22.60;88.70;;;;;;4987041;28;20046;-64
2022/06/05 11:21:01;;;;;;;5.70;2.95;;;22.60;88.60;;;;;;4987716;28;20061;-64
2022/06/05 11:23:34;;;;;;;15.10;3.50;;;22.70;88.30;;;;;;4988288;28;20030;-64
2022/06/05 11:26:16;;;;;;;6.38;3.60;;;22.70;88.10;;;;;;4987423;28;20053;-63
2022/06/05 11:29:09;;;;;;;7.47;3.30;;;22.70;87.80;;;;;;4988042;28;20030;-64
2022/06/05 11:31:54;;;;;;;10.07;3.78;;;22.80;87.80;;;;;;4990182;28;20109;-65
2022/06/05 11:34:29;;;;;;;6.30;3.50;;;22.80;87.90;;;;;;4988554;28;20054;-64
2022/06/05 11:37:19;;;;;;;2.92;1.95;;;22.90;87.80;;;;;;4987946;28;20479;-64
2022/06/05 11:40:22;;;;;;;5.57;3.80;;;22.90;88.40;;;;;;4989036;28;20034;-64
2022/06/05 11:43:17;;;;;;;5.15;2.95;;;23.00;88.00;;;;;;4987452;28;20069;-64
2022/06/05 11:46:16;;;;;;;5.28;2.67;;;23.00;88.30;;;;;;4972465;28;20564;-65
2022/06/05 11:48:52;;;;;;;6.47;3.83;;;23.10;88.20;;;;;;4987744;28;20116;-67
2022/06/05 11:51:26;;;;;;;5.63;3.90;;;23.20;88.00;;;;;;4987925;28;20026;-67
2022/06/05 11:54:07;;;;;;;3.35;2.38;;;23.20;87.90;;;;;;4988329;28;20390;-66
2022/06/05 11:56:41;;;;;;;12.13;4.00;;;23.20;88.30;;;;;;4987715;28;20061;-65
2022/06/05 11:59:29;;;;;;;7.05;3.38;;;23.20;87.70;;;;;;4987124;28;20459;-64
2022/06/05 12:02:22;;;;;;;4.03;2.80;;;23.30;87.90;;;;;;4988378;28;20519;-65
2022/06/05 12:05:13;;;;;;;6.18;3.70;;;23.30;88.40;;;;;;4958778;28;20046;-65
2022/06/05 12:07:40;;;;;;;6.82;3.10;;;23.40;87.90;;;;;;4988051;28;20034;-65
2022/06/05 12:10:19;;;;;;;9.00;3.70;;;23.40;88.00;;;;;;4988492;28;20478;-65
2022/06/05 12:12:50;;;;;;;8.60;2.38;;;23.50;87.60;;;;;;4988371;28;20042;-65
2022/06/05 12:15:33;;;;;;;4.88;3.10;;;23.50;88.00;;;;;;4987407;28;20116;-65
2022/06/05 12:18:19;;;;;;;5.80;3.38;;;23.60;87.40;;;;;;4986194;28;20038;-65
2022/06/05 12:21:04;;;;;;;5.63;3.30;;;23.60;87.30;;;;;;4988022;28;20026;-64
2022/06/05 12:24:00;;;;;;;4.47;2.75;;;23.70;87.30;;;;;;4988404;28;20575;-65
2022/06/05 12:26:47;;;;;;;5.75;2.00;;;23.80;87.20;;;;;;4989954;28;20038;-65
2022/06/05 12:29:52;;;;;;;4.70;3.15;;;23.80;88.20;;;;;;4991894;28;20029;-64
2022/06/05 12:32:45;;;;;;;5.60;3.70;;;23.90;87.30;;;;;;4969951;28;20039;-64
2022/06/05 12:35:13;;;;;;;7.88;2.83;;;23.90;87.50;;;;;;4991305;28;20042;-64
2022/06/05 12:37:58;;;;;;;4.18;2.78;;;23.90;86.60;;;;;;4990521;28;20029;-64
2022/06/05 12:40:32;;;;;;;4.65;3.20;;;24.00;86.40;;;;;;4991236;28;20038;-65
2022/06/05 12:43:07;;;;;;;5.88;3.10;;;24.00;86.10;;;;;;4991338;28;20907;-64
2022/06/05 12:45:38;;;;;;;6.88;2.85;;;24.10;86.00;;;;;;4992009;28;20133;-64
2022/06/05 12:48:13;;;;;;;2.70;2.10;;;24.10;86.70;;;;;;4991062;28;20161;-64
2022/06/05 12:51:01;;;;;;;4.93;3.10;;;24.20;86.80;;;;;;4992838;28;20165;-65
2022/06/05 12:53:27;;;;;;;5.13;3.03;;;24.20;85.80;;;;;;4991199;28;20034;-66
2022/06/05 12:56:14;;;;;;;6.63;3.33;;;24.30;85.40;;;;;;4990335;28;20085;-65
2022/06/05 12:59:10;;;;;;;4.95;3.00;;;24.30;85.40;;;;;;4990810;28;20038;-68
2022/06/05 13:01:51;;;;;;;7.57;3.33;;;24.30;85.20;;;;;;4987449;28;20037;-67
2022/06/05 13:04:35;;;;;;;6.68;3.05;;;24.30;84.70;;;;;;4986609;28;20038;-67
2022/06/05 13:07:00;;;;;;;;;;;24.40;84.30;;;;;;4988149;28;20038;-67
2022/06/05 13:09:31;;;;;;;5.18;3.08;;;24.40;86.70;;;;;;4988719;28;20262;-67
2022/06/05 13:12:05;;;;;;;6.85;3.65;;;24.40;85.40;;;;;;4987900;28;20030;-68
2022/06/05 13:14:50;;;;;;;19.25;3.35;;;24.50;85.00;;;;;;4987525;28;20042;-68
2022/06/05 13:17:39;;;;;;;5.38;3.03;;;24.50;85.20;;;;;;4987045;28;20558;-68
2022/06/05 13:20:31;;;;;;;5.00;3.00;;;24.60;85.80;;;;;;4987782;28;20038;-68
2022/06/05 13:23:06;;;;;;;5.87;2.90;;;24.60;85.00;;;;;;4987860;28;20478;-67
2022/06/05 13:26:17;;;;;;;7.40;3.05;;;24.60;85.20;;;;;;4988231;28;20042;-67
2022/06/05 13:29:18;;;;;;;4.40;3.08;;;24.60;85.40;;;;;;4971057;28;20049;-67
2022/06/05 13:31:57;;;;;;;5.63;3.17;;;24.60;85.40;;;;;;4978984;28;20042;-67
2022/06/05 13:34:50;;;;;;;6.78;3.22;;;24.70;84.90;;;;;;4991735;28;20037;-66
2022/06/05 13:37:35;;;;;;;4.32;2.80;;;24.70;84.90;;;;;;4987217;28;20030;-67
2022/06/05 13:40:05;;;;;;;4.80;2.90;;;24.70;84.90;;;;;;4991542;28;20037;-67